< < Back
Terminal Aerodrome Forecast


Current Version              Previous Versions:   1  2  3  4  5  6  7  8  9  

Terminal Aerodrome Forecast

502
FTUS42 KCAE 231133
TAFCAE
TAF
KCAE 231133Z 2312/2412 23006KT P6SM SCT060 BKN200
     FM240200 VRB04KT P6SM SCT200=

Latest METAR

428
SAUS80 KWBC 231400 CCA
MTRCAE
METAR KCAE 231356Z 28006KT 10SM FEW200 32/22 A3000 RMK AO2 SLP156
T03220217


USA.gov is the U.S. government's official web portal to all federal, state and local government web resources and services.